createdAt,value
2023-04-02T00:02:13.846Z,63.92
2023-04-02T00:05:11.506Z,63.88
2023-04-02T00:08:10.197Z,63.85
2023-04-02T00:11:07.971Z,63.84
2023-04-02T00:14:06.103Z,63.82
2023-04-02T00:17:03.535Z,63.77
2023-04-02T00:20:01.399Z,63.82
2023-04-02T00:22:58.837Z,63.88
2023-04-02T00:25:56.577Z,64.03
2023-04-02T00:28:54.038Z,64.21
2023-04-02T00:31:51.840Z,64.30
2023-04-02T00:34:49.631Z,64.59
2023-04-02T00:37:47.084Z,64.66
2023-04-02T00:40:44.694Z,64.77
2023-04-02T00:43:44.654Z,64.89
2023-04-02T00:46:47.532Z,64.99
2023-04-02T00:49:44.978Z,65.04
2023-04-02T00:52:42.633Z,64.95
2023-04-02T00:55:40.403Z,65.03
2023-04-02T00:58:37.894Z,65.09
2023-04-02T01:01:36.837Z,65.14
2023-04-02T01:04:34.796Z,65.20
2023-04-02T01:07:32.731Z,65.18
2023-04-02T01:10:30.195Z,65.27
2023-04-02T01:13:27.925Z,65.38
2023-04-02T01:16:26.127Z,65.38
2023-04-02T01:19:23.590Z,65.33
2023-04-02T01:22:21.175Z,65.35
2023-04-02T01:25:18.937Z,65.39
2023-04-02T01:28:19.881Z,65.47
2023-04-02T01:31:17.698Z,65.50
2023-04-02T01:34:15.481Z,65.51
2023-04-02T01:37:13.222Z,65.59
2023-04-02T01:40:11.432Z,65.68
2023-04-02T01:43:09.120Z,65.66
2023-04-02T01:46:06.591Z,65.69
2023-04-02T01:49:04.222Z,65.80
2023-04-02T01:52:01.659Z,65.80
2023-04-02T01:55:00.054Z,65.85
2023-04-02T01:57:57.685Z,65.88
2023-04-02T02:00:55.132Z,65.90
2023-04-02T02:03:52.881Z,65.90
2023-04-02T02:06:50.449Z,65.87
2023-04-02T02:09:48.047Z,65.84
2023-04-02T02:12:46.132Z,65.85
2023-04-02T02:15:43.575Z,65.80
2023-04-02T02:18:41.364Z,65.72
2023-04-02T02:21:38.821Z,65.69
2023-04-02T02:24:37.821Z,65.70
2023-04-02T02:27:35.612Z,65.65
2023-04-02T02:30:33.266Z,65.68
2023-04-02T02:33:30.707Z,65.74
2023-04-02T02:36:28.994Z,65.81
2023-04-02T02:39:28.473Z,65.90
2023-04-02T02:42:26.003Z,65.99
2023-04-02T02:45:23.709Z,66.00
2023-04-02T02:48:21.177Z,66.03
2023-04-02T02:51:18.939Z,66.09
2023-04-02T02:54:16.800Z,66.13
2023-04-02T02:57:14.316Z,66.22
2023-04-02T03:00:13.260Z,66.34
2023-04-02T03:03:10.845Z,66.48
2023-04-02T03:06:08.922Z,66.64
2023-04-02T03:09:06.438Z,66.72
2023-04-02T03:12:04.372Z,66.81
2023-04-02T03:15:03.005Z,66.89
2023-04-02T03:18:00.639Z,66.90
2023-04-02T03:20:58.289Z,67.06
2023-04-02T03:23:55.750Z,67.15
2023-04-02T03:26:53.496Z,67.28
2023-04-02T03:29:51.989Z,67.38
2023-04-02T03:32:49.644Z,67.47
2023-04-02T03:35:47.146Z,67.50
2023-04-02T03:38:44.869Z,67.54
2023-04-02T03:41:42.528Z,67.67
2023-04-02T03:44:39.995Z,67.77
2023-04-02T03:47:38.291Z,67.89
2023-04-02T03:50:35.866Z,67.88
2023-04-02T03:53:33.486Z,68.00
2023-04-02T03:56:31.717Z,68.06
2023-04-02T03:59:29.421Z,68.11
2023-04-02T04:02:27.350Z,68.17
2023-04-02T04:05:24.985Z,68.22
2023-04-02T04:08:22.648Z,68.28
2023-04-02T04:11:20.294Z,68.31
2023-04-02T04:14:18.075Z,68.32
2023-04-02T04:17:16.130Z,68.39
2023-04-02T04:20:13.618Z,68.42
2023-04-02T04:23:11.307Z,68.49
2023-04-02T04:26:10.635Z,68.56
2023-04-02T04:29:10.062Z,68.60
2023-04-02T04:32:07.577Z,68.69
2023-04-02T04:35:06.648Z,68.76
2023-04-02T04:38:04.281Z,68.87
2023-04-02T04:41:01.719Z,68.91
2023-04-02T04:43:59.522Z,69.00
2023-04-02T04:46:56.957Z,69.00
2023-04-02T04:49:54.652Z,69.02
2023-04-02T04:52:52.136Z,69.10
2023-04-02T04:55:49.881Z,69.15
2023-04-02T04:58:47.343Z,69.18
2023-04-02T05:01:45.437Z,69.27
2023-04-02T05:04:43.118Z,69.30
2023-04-02T05:07:40.603Z,69.28
2023-04-02T05:10:38.327Z,69.34
2023-04-02T05:13:35.849Z,69.31
2023-04-02T05:16:33.618Z,69.31
2023-04-02T05:19:31.207Z,69.29
2023-04-02T05:22:28.966Z,69.29
2023-04-02T05:25:26.728Z,69.30
2023-04-02T05:28:24.159Z,69.37
2023-04-02T05:31:21.897Z,69.38
2023-04-02T05:34:19.363Z,69.38
2023-04-02T05:37:18.194Z,69.38
2023-04-02T05:40:15.635Z,69.42
2023-04-02T05:43:13.449Z,69.42
2023-04-02T05:46:10.905Z,69.45
2023-04-02T05:49:08.764Z,69.50
2023-04-02T05:52:06.641Z,69.60
2023-04-02T05:55:04.091Z,69.67
2023-04-02T06:01:04.842Z,69.91
2023-04-02T06:04:02.467Z,69.88
2023-04-02T06:07:00.107Z,69.89
2023-04-02T06:09:57.530Z,69.97
2023-04-02T06:12:55.296Z,69.98
2023-04-02T06:15:52.764Z,70.15
2023-04-02T06:18:50.428Z,70.18
2023-04-02T06:21:49.963Z,70.23
2023-04-02T06:24:47.741Z,70.35
2023-04-02T06:27:45.453Z,70.48
2023-04-02T06:30:42.950Z,70.54
2023-04-02T06:33:40.823Z,70.42
2023-04-02T06:36:38.269Z,70.51
2023-04-02T06:39:36.062Z,70.49
2023-04-02T06:42:33.817Z,70.55
2023-04-02T06:45:31.286Z,70.60
2023-04-02T06:48:28.955Z,70.58
2023-04-02T06:51:26.405Z,70.35
2023-04-02T06:54:24.155Z,70.29
2023-04-02T06:57:21.729Z,70.11
2023-04-02T07:00:21.229Z,69.96
2023-04-02T07:03:18.690Z,69.81
2023-04-02T07:06:16.386Z,69.59
2023-04-02T07:09:14.043Z,69.03
2023-04-02T07:12:11.500Z,68.59
2023-04-02T07:15:09.250Z,68.18
2023-04-02T07:18:07.067Z,67.65
2023-04-02T07:21:04.866Z,66.78
2023-04-02T07:24:02.488Z,66.38
2023-04-02T07:26:59.946Z,65.93
2023-04-02T07:29:57.580Z,65.86
2023-04-02T07:32:55.027Z,65.72
2023-04-02T07:35:54.252Z,65.54
2023-04-02T07:38:51.816Z,65.42
2023-04-02T07:41:49.506Z,65.48
2023-04-02T07:44:47.112Z,65.23
2023-04-02T07:47:44.597Z,65.16
2023-04-02T07:50:42.332Z,64.81
2023-04-02T07:53:41.886Z,64.51
2023-04-02T07:56:39.644Z,64.58
2023-04-02T07:59:37.093Z,64.61
2023-04-02T08:02:34.887Z,64.47
2023-04-02T08:05:32.578Z,64.21
2023-04-02T08:08:30.414Z,64.23
2023-04-02T08:11:29.655Z,64.39
2023-04-02T08:14:28.708Z,64.49
2023-04-02T08:17:26.592Z,64.28
2023-04-02T08:20:24.708Z,64.31
2023-04-02T08:23:22.787Z,64.23
2023-04-02T08:26:20.217Z,64.21
2023-04-02T08:29:17.908Z,64.11
2023-04-02T08:32:16.084Z,64.10
2023-04-02T08:35:13.515Z,64.24
2023-04-02T08:38:11.312Z,64.53
2023-04-02T08:41:08.767Z,64.53
2023-04-02T08:44:07.485Z,64.53
2023-04-02T08:47:04.932Z,64.75
2023-04-02T08:50:02.561Z,65.06
2023-04-02T08:53:00.203Z,65.30
2023-04-02T08:56:00.031Z,65.34
2023-04-02T08:58:58.062Z,65.44
2023-04-02T09:01:55.665Z,65.69
2023-04-02T09:04:53.532Z,65.96
2023-04-02T09:07:51.042Z,66.21
2023-04-02T09:10:48.822Z,66.43
2023-04-02T09:13:46.807Z,66.76
2023-04-02T09:16:44.276Z,67.01
2023-04-02T09:19:42.587Z,67.25
2023-04-02T09:22:40.137Z,67.46
2023-04-02T09:25:38.114Z,67.76
2023-04-02T09:28:35.800Z,68.01
2023-04-02T09:31:33.514Z,68.25
2023-04-02T09:34:31.157Z,68.32
2023-04-02T09:37:29.553Z,68.78
2023-04-02T09:40:27.617Z,68.93
2023-04-02T09:43:25.074Z,69.08
2023-04-02T09:46:22.714Z,69.02
2023-04-02T09:49:20.146Z,69.21
2023-04-02T09:52:17.960Z,69.28
2023-04-02T09:55:15.703Z,69.20
2023-04-02T09:58:13.158Z,69.08
2023-04-02T10:01:11.285Z,68.88
2023-04-02T10:04:08.763Z,68.61
2023-04-02T10:07:06.734Z,68.80
2023-04-02T10:10:04.566Z,68.45
2023-04-02T10:13:02.378Z,67.94
2023-04-02T10:16:00.400Z,67.21
2023-04-02T10:18:58.597Z,66.06
2023-04-02T10:21:56.957Z,65.07
2023-04-02T10:24:54.405Z,64.27
2023-04-02T10:27:52.319Z,63.68
2023-04-02T10:30:50.124Z,62.54
2023-04-02T10:33:47.940Z,60.03
2023-04-02T10:36:46.800Z,58.63
2023-04-02T10:39:44.397Z,57.49
2023-04-02T10:42:42.457Z,57.41
2023-04-02T10:45:39.903Z,57.42
2023-04-02T10:48:37.664Z,56.92
2023-04-02T10:51:35.116Z,56.42
2023-04-02T10:54:33.645Z,55.98
2023-04-02T10:57:31.548Z,55.78
2023-04-02T11:00:29.462Z,55.63
2023-04-02T11:03:27.265Z,55.81
2023-04-02T11:06:24.826Z,55.97
2023-04-02T11:09:22.566Z,56.08
2023-04-02T11:12:20.021Z,56.57
2023-04-02T11:15:18.103Z,56.71
2023-04-02T11:18:15.553Z,56.92
2023-04-02T11:21:13.175Z,57.41
2023-04-02T11:24:10.994Z,57.88
2023-04-02T11:27:08.496Z,58.36
2023-04-02T11:30:06.682Z,58.79
2023-04-02T11:33:04.379Z,59.23
2023-04-02T11:36:02.468Z,59.84
2023-04-02T11:39:07.634Z,60.15
2023-04-02T11:42:14.708Z,60.45
2023-04-02T11:45:12.848Z,60.66
2023-04-02T11:48:10.395Z,60.88
2023-04-02T11:51:08.403Z,61.07
2023-04-02T11:54:06.152Z,61.42
2023-04-02T11:57:06.133Z,61.84
2023-04-02T12:00:05.433Z,62.14
2023-04-02T12:03:04.839Z,62.57
2023-04-02T12:06:04.132Z,62.80
2023-04-02T12:09:05.277Z,63.05
2023-04-02T12:12:03.821Z,63.24
2023-04-02T12:15:01.274Z,63.54
2023-04-02T12:17:59.450Z,64.01
2023-04-02T12:20:57.254Z,63.87
2023-04-02T12:23:55.099Z,64.16
2023-04-02T12:26:54.578Z,64.25
2023-04-02T12:29:52.372Z,64.43
2023-04-02T12:32:51.167Z,64.88
2023-04-02T12:35:49.117Z,65.34
2023-04-02T12:38:47.311Z,65.53
2023-04-02T12:41:44.793Z,65.81
2023-04-02T12:44:42.565Z,65.92
2023-04-02T12:47:40.639Z,66.13
2023-04-02T12:50:38.972Z,66.40
2023-04-02T12:53:36.816Z,66.62
2023-04-02T12:56:34.291Z,66.93
2023-04-02T12:59:34.154Z,67.18
2023-04-02T13:02:31.865Z,67.58
2023-04-02T13:05:32.617Z,67.95
2023-04-02T13:08:31.030Z,68.15
2023-04-02T13:11:28.467Z,68.18
2023-04-02T13:14:26.261Z,68.34
2023-04-02T13:17:23.711Z,68.50
2023-04-02T13:20:21.378Z,68.54
2023-04-02T13:23:19.084Z,68.73
2023-04-02T13:26:17.661Z,68.98
2023-04-02T13:29:15.620Z,68.98
2023-04-02T13:32:13.513Z,69.03
2023-04-02T13:35:11.740Z,69.07
2023-04-02T13:38:09.511Z,68.88
2023-04-02T13:41:07.332Z,68.68
2023-04-02T13:44:04.904Z,68.61
2023-04-02T13:47:02.936Z,68.32
2023-04-02T13:50:00.701Z,68.15
2023-04-02T13:52:58.634Z,68.30
2023-04-02T13:55:56.924Z,68.32
2023-04-02T13:58:54.441Z,68.52
2023-04-02T14:01:52.944Z,68.58
2023-04-02T14:04:51.169Z,68.71
2023-04-02T14:07:50.938Z,68.82
2023-04-02T14:10:48.658Z,68.63
2023-04-02T14:13:46.913Z,68.59
2023-04-02T14:16:44.693Z,68.89
2023-04-02T14:19:42.666Z,68.70
2023-04-02T14:22:40.809Z,68.74
2023-04-02T14:25:38.844Z,68.97
2023-04-02T14:28:39.557Z,69.34
2023-04-02T14:31:38.263Z,69.41
2023-04-02T14:34:36.180Z,69.39
2023-04-02T14:37:34.415Z,69.34
2023-04-02T14:40:32.657Z,69.43
2023-04-02T14:43:30.334Z,69.76
2023-04-02T14:46:27.845Z,70.10
2023-04-02T14:49:25.780Z,70.06
2023-04-02T14:52:24.005Z,70.23
2023-04-02T14:55:24.450Z,70.51
2023-04-02T14:58:23.363Z,70.60
2023-04-02T15:01:23.025Z,70.64
2023-04-02T15:04:22.078Z,70.77
2023-04-02T15:07:20.382Z,70.96
2023-04-02T15:10:18.852Z,71.08
2023-04-02T15:13:17.251Z,71.24
2023-04-02T15:16:15.564Z,71.26
2023-04-02T15:19:13.464Z,71.45
2023-04-02T15:22:12.378Z,71.52
2023-04-02T15:25:10.504Z,71.60
2023-04-02T15:28:09.040Z,71.61
2023-04-02T15:31:07.802Z,71.68
2023-04-02T15:34:07.602Z,71.57
2023-04-02T15:37:06.028Z,71.66
2023-04-02T15:40:05.764Z,71.79
2023-04-02T15:43:04.846Z,71.81
2023-04-02T15:46:04.078Z,71.80
2023-04-02T15:49:02.084Z,71.72
2023-04-02T15:52:01.027Z,71.56
2023-04-02T15:55:00.013Z,71.41
2023-04-02T15:57:58.998Z,71.32
2023-04-02T16:00:59.233Z,71.30
2023-04-02T16:03:57.300Z,71.48
2023-04-02T16:06:55.313Z,71.35
2023-04-02T16:09:52.948Z,71.16
2023-04-02T16:12:51.031Z,70.89
2023-04-02T16:15:51.815Z,70.61
2023-04-02T16:18:51.431Z,70.27
2023-04-02T16:21:50.952Z,70.07
2023-04-02T16:24:48.857Z,70.01
2023-04-02T16:27:47.631Z,69.80
2023-04-02T16:30:46.245Z,69.86
2023-04-02T16:33:44.908Z,69.84
2023-04-02T16:36:43.513Z,69.67
2023-04-02T16:39:41.686Z,69.64
2023-04-02T16:42:44.206Z,69.48
2023-04-02T16:45:43.305Z,69.08
2023-04-02T16:48:44.582Z,68.57
2023-04-02T16:51:44.096Z,68.32
2023-04-02T16:54:42.021Z,68.27
2023-04-02T16:57:40.668Z,68.40
2023-04-02T17:00:39.381Z,68.50
2023-04-02T17:03:41.720Z,68.62
2023-04-02T17:06:41.987Z,68.52
2023-04-02T17:09:41.359Z,68.37
2023-04-02T17:12:40.355Z,68.31
2023-04-02T17:15:39.861Z,68.07
2023-04-02T17:18:39.491Z,67.77
2023-04-02T17:21:39.188Z,67.58
2023-04-02T17:24:38.645Z,66.85
2023-04-02T17:27:37.383Z,66.53
2023-04-02T17:30:35.657Z,66.58
2023-04-02T17:33:34.757Z,66.47
2023-04-02T17:36:43.018Z,66.10
2023-04-02T17:39:46.032Z,66.04
2023-04-02T17:42:45.269Z,65.82
2023-04-02T17:45:47.545Z,65.63
2023-04-02T17:48:46.846Z,65.53
2023-04-02T17:51:46.549Z,65.55
2023-04-02T17:54:45.652Z,65.38
2023-04-02T17:57:44.943Z,65.08
2023-04-02T18:00:47.768Z,64.71
2023-04-02T18:03:51.092Z,64.50
2023-04-02T18:06:50.809Z,64.25
2023-04-02T18:09:49.280Z,64.28
2023-04-02T18:12:48.521Z,64.10
2023-04-02T18:15:48.502Z,64.05
2023-04-02T18:18:46.630Z,63.99
2023-04-02T18:21:47.609Z,63.76
2023-04-02T18:24:49.646Z,63.86
2023-04-02T18:27:47.908Z,63.88
2023-04-02T18:30:46.764Z,63.76
2023-04-02T18:33:47.417Z,63.67
2023-04-02T18:36:46.378Z,63.50
2023-04-02T18:39:46.178Z,63.33
2023-04-02T18:42:48.886Z,63.17
2023-04-02T18:45:49.332Z,63.10
2023-04-02T18:48:50.078Z,63.06
2023-04-02T18:51:48.652Z,62.99
2023-04-02T18:54:47.329Z,63.22
2023-04-02T18:57:47.328Z,63.24
2023-04-02T19:00:48.883Z,63.22
2023-04-02T19:03:50.506Z,63.17
2023-04-02T19:06:54.648Z,63.06
2023-04-02T19:09:53.729Z,63.04
2023-04-02T19:12:53.647Z,62.96
2023-04-02T19:15:58.335Z,62.90
2023-04-02T19:18:58.229Z,62.91
2023-04-02T19:21:59.851Z,62.96
2023-04-02T19:24:59.274Z,63.02
2023-04-02T19:27:59.138Z,62.91
2023-04-02T19:30:59.295Z,62.72
2023-04-02T19:33:59.292Z,62.62
2023-04-02T19:37:05.204Z,62.64
2023-04-02T19:40:10.554Z,62.49
2023-04-02T19:43:09.728Z,62.48
2023-04-02T19:46:08.822Z,62.33
2023-04-02T19:49:08.002Z,62.40
2023-04-02T19:52:08.193Z,62.40
2023-04-02T19:55:15.044Z,62.35
2023-04-02T19:58:19.721Z,62.24
2023-04-02T20:01:18.453Z,62.33
2023-04-02T20:04:17.823Z,62.17
2023-04-02T20:07:17.046Z,62.03
2023-04-02T20:10:17.477Z,61.88
2023-04-02T20:13:22.525Z,61.88
2023-04-02T20:16:22.306Z,61.68
2023-04-02T20:19:21.530Z,61.74
2023-04-02T20:22:19.973Z,61.72
2023-04-02T20:25:18.314Z,61.67
2023-04-02T20:28:16.781Z,61.47
2023-04-02T20:31:17.398Z,61.34
2023-04-02T20:34:15.992Z,61.23
2023-04-02T20:37:14.530Z,61.13
2023-04-02T20:40:13.517Z,61.10
2023-04-02T20:43:13.382Z,60.99
2023-04-02T20:46:12.438Z,60.83
2023-04-02T20:49:10.703Z,60.81
2023-04-02T20:52:08.470Z,60.90
2023-04-02T20:55:06.093Z,60.99
2023-04-02T20:58:03.864Z,61.02
2023-04-02T21:01:01.612Z,61.00
2023-04-02T21:03:59.169Z,61.08
2023-04-02T21:06:58.020Z,61.15
2023-04-02T21:09:55.615Z,61.35
2023-04-02T21:12:53.942Z,61.48
2023-04-02T21:15:51.591Z,61.59
2023-04-02T21:18:49.341Z,61.71
2023-04-02T21:21:47.134Z,61.92
2023-04-02T21:24:44.579Z,62.04
2023-04-02T21:27:42.236Z,62.16
2023-04-02T21:30:39.688Z,62.32
2023-04-02T21:33:37.482Z,62.30
2023-04-02T21:36:34.968Z,62.30
2023-04-02T21:39:33.946Z,62.32
2023-04-02T21:42:32.210Z,62.26
2023-04-02T21:45:29.705Z,62.24
2023-04-02T21:48:27.545Z,62.30
2023-04-02T21:51:24.991Z,62.23
2023-04-02T21:54:22.671Z,62.17
2023-04-02T21:57:20.129Z,62.08
2023-04-02T22:00:19.557Z,62.14
2023-04-02T22:03:25.115Z,62.08
2023-04-02T22:06:29.113Z,62.05
2023-04-02T22:09:26.768Z,62.03
2023-04-02T22:12:24.340Z,62.07
2023-04-02T22:15:22.085Z,62.18
2023-04-02T22:18:19.563Z,62.30
2023-04-02T22:21:17.340Z,62.22
2023-04-02T22:24:14.991Z,62.22
2023-04-02T22:27:12.920Z,62.29
2023-04-02T22:30:10.815Z,62.17
2023-04-02T22:33:08.306Z,62.17
2023-04-02T22:36:06.242Z,62.21
2023-04-02T22:39:05.617Z,62.22
2023-04-02T22:42:03.621Z,62.21
2023-04-02T22:45:04.501Z,62.28
2023-04-02T22:48:02.009Z,62.28
2023-04-02T22:50:59.781Z,62.22
2023-04-02T22:53:57.291Z,62.22
2023-04-02T22:56:55.738Z,62.17
2023-04-02T22:59:53.509Z,62.21
2023-04-02T23:02:50.986Z,62.22
2023-04-02T23:05:48.744Z,62.17
2023-04-02T23:08:46.184Z,62.12
2023-04-02T23:11:43.877Z,62.01
2023-04-02T23:14:41.338Z,61.96
2023-04-02T23:17:39.141Z,62.00
2023-04-02T23:20:37.171Z,61.94
2023-04-02T23:23:35.258Z,61.84
2023-04-02T23:26:33.244Z,61.84
2023-04-02T23:29:30.930Z,61.87
2023-04-02T23:32:28.662Z,61.81
2023-04-02T23:35:26.452Z,61.88
2023-04-02T23:38:24.126Z,61.89
2023-04-02T23:41:21.609Z,61.93
2023-04-02T23:44:19.306Z,62.00
2023-04-02T23:47:17.089Z,62.00
2023-04-02T23:50:14.539Z,62.01
2023-04-02T23:53:12.319Z,62.03
2023-04-02T23:56:09.932Z,62.07
2023-04-02T23:59:07.704Z,62.14
